Ride Results

Gordon Williams Memorial Ride (12-11-2011)
Ride distance: 80.0 km

Outcomes - Gordon Williams Memorial Ride (12-11-2011)
Division No. of Entries Retired / DNE Completed Withdrawn Ineligible V/O Percentage Completed
HW 7 - 5 1 - 1 71.43%
MW 20 - 16 1 - 3 80.00%
LW 10 - 10 - - - 100.00%
JN 7 - 6 - - 1 85.71%
Totals 44 - 37 2 - 5 84.09%
Results - Gordon Williams Memorial Ride (12-11-2011)
No. Rider Horse Place Time Leg Speeds Total
Km/Hr
H/R bpm
Heavyweight
174 Merv Brown Dial Range Shard 1 6:05:00 14.2, 11.6 13.15 41, 48, 53 (Avg:50)
194 Robby Walsh Free Spirit Czar 2 (BC) 6:09:00 13.1, 12.8 13.01 43, 50, 51 (Avg:50)
11 Adam Richardson Eva 3 6:41:00 12.3, 11.3 11.97 38, 52, 46 (Avg:49)
141 Tim Potter Cape Haven Kings Gift 4 7:02:00 11.9, 10.5 11.37 41, 45, 49 (Avg:47)
18 Sheleah Astell Free Spirit Lightning Ridge 5 7:33:00 11.2, 9.6 10.60 39, 49, 51 (Avg:50)
140 Stuart King Kaban Withdrawn L1 0:00:00 - - 48, 44 (Avg:44)
38 Tony Purton Beer Street Dimity Lame L1 0:00:00 21.7 - 46, 53 (Avg:53)
Middleweight
185 Dale Press Undurra Geisha 1 3:44:00 20.6, 22.7 21.43 36, 53, 57 (Avg:55)
179 Debbie Grull Lauralyn Notorious 2 (BC) 3:45:00 21.8, 20.4 21.33 52, 55, 47 (Avg:51)
101 Wendy Rand Shayelle Mi Mi 3 4:07:00 20.1, 18.3 19.43 34, 47, 46 (Avg:46)
136 Kaye Mitchell Beer Street Bluewitch 4 4:33:00 17.5, 17.6 17.58 34, 51, 48 (Avg:49)
57 Tania Jago Rivergum Ripper 5 6:05:00 14.2, 11.6 13.15 37, 45, 49 (Avg:47)
12 Anita Hutchins Enderby Shakira 6 6:09:00 13.1, 12.8 13.01 38, 47, 52 (Avg:49)
230 Jodie Clarke Bluegrass Geronimo 7 6:09:01 13.1, 12.8 13.01 42, 48, 51 (Avg:49)
22 Helen Astell Soli 8 6:33:00 13.5, 10.4 12.21 32, 54, 59 (Avg:56)
180 Nicole Ford Duke 8 6:33:00 12.4, 11.7 12.21 36, 43, 47 (Avg:45)
130 Shane Flint Bellawongarah Sulieman 10 6:46:00 11.9, 11.6 11.82 42, 48, 54 (Avg:51)
204 Casey Hayes Highland view Shataya 11 7:07:00 11.6, 10.5 11.24 40, 43, 48 (Avg:45)
63 Veronica Munro Black Heart Baytobin 12 7:29:00 10.6, 10.8 10.69 44, 45, 55 (Avg:50)
94 Natalie Humphries Claralee Maverick 13 7:33:00 10.2, 11.1 10.60 45, 45, 47 (Avg:46)
102 Keryn Mahoney Tonki Dee Boo Pricilla 14 7:34:00 10.6, 10.5 10.57 35, 46, 46 (Avg:46)
39 Lyn Nicolle Lauralyn Precious 15 7:45:00 11.6, 8.6 10.32 49, 48, 50 (Avg:49)
162 David Pilgrim Tierview Cloud Danczer 16 7:45:01 11.6, 8.6 10.32 47, 52, 52 (Avg:52)
213 Ricky Febey Highland View JJ Lame L1 0:00:00 14.2 - 40, 43 (Avg:43)
188 Leanne Freeman Rokewood Calgary Lame L1 0:00:00 12.9 - 42, 52 (Avg:52)
103 Edward Pressnell Tonki Dee Boo Breeze Withdrawn L1 0:00:00 - - 35, 46 (Avg:46)
189 Leonie Stewart Dial Range Park Omen Lame L1 0:00:00 16.0 - 35, 51 (Avg:51)
Lightweight
225 Jane Walsh Undurra Shimon 1 (BC) 3:44:00 21.8, 20.6 21.43 40, 49, 52 (Avg:50)
182 Fran Jordan Tierview Saadat 2 5:51:00 13.7, 13.5 13.68 39, 53, 51 (Avg:52)
100 Trish Smith Anglesea Piccolo 2 5:51:00 13.7, 13.5 13.68 46, 42, 46 (Avg:44)
D Tracey Nutting Acaciavej Shadowy Prince 4 6:02:00 13.5, 12.8 13.26 38, 46, 51 (Avg:48)
32 Donna Wall Lauralyn Bayeta 4 6:02:00 13.5, 12.8 13.26 36, 47, 50 (Avg:48)
20 Jodi Smith Davlyn Park Zarhana 6 6:09:00 13.1, 12.8 13.01 43, 48, 50 (Avg:49)
19 Sonia Hodgetts Karabah Tully 7 6:13:00 12.9, 12.7 12.87 36, 42, 49 (Avg:45)
210 Cas Speed Highland View Eclipse 8 6:33:00 12.4, 11.7 12.21 39, 49, 46 (Avg:47)
217 Phoebe Harper Banks Merrivale Safari Moon 9 7:33:00 11.2, 9.6 10.60 35, 44, 51 (Avg:47)
1 Ann Richards Kurrajong Jag 10 7:34:00 10.6, 10.5 10.57 35, 49, 46 (Avg:47)
Junior
190 Alice Mitchell Beer Street Takone 1 (BC) 4:52:00 16.0, 17.1 16.44 36, 48, 54 (Avg:51)
209 Grace Huxtable Ace 2 6:33:00 12.4, 11.7 12.21 41, 41, 46 (Avg:43)
29A Danielle Taylor Touchwarr Zamba 3 6:33:01 12.4, 11.7 12.21 45, 48, 51 (Avg:49)
47 Hannah Colbeck Malricia Frankie 4 6:47:00 12.2, 11.0 11.79 48, 47, 53 (Avg:50)
196 Ellie Maddick Armidale Flash Jack 5 7:07:00 11.6, 10.5 11.24 43, 43, 47 (Avg:45)
133 Margaret Streeter Lauralyn Mishad 6 7:45:00 11.6, 8.6 10.32 47, 47, 45 (Avg:46)
74 Felicity Perry Dream Catcher Te Lame L2 0:00:00 12.2, 11.0 - 36, 42, 45 (Avg:43)